Time;durP1;ratioP1;P1;durP2;ratioP2;P2;SDS_P1;SDS_P2;PMS_P1;PMS_P2;Temp;Humidity;BMP_temperature;BMP_pressure;BME280_temperature;BME280_humidity;BME280_pressure;Samples;Min_cycle;Max_cycle;Signal;HPM_P1;HPM_P2
2024/01/01 00:01:39;;;;;;;25.20;14.05;;;;;;;;;;5045383;28;20463;-59
2024/01/01 00:04:05;;;;;;;27.58;16.55;;;;;;;;;;5044547;28;20119;-60
2024/01/01 00:06:31;;;;;;;27.90;16.65;;;;;;;;;;5045727;28;20053;-59
2024/01/01 00:08:58;;;;;;;25.80;18.40;;;;;;;;;;5045715;28;20089;-59
2024/01/01 00:11:24;;;;;;;28.38;17.90;;;;;;;;;;5046379;28;20068;-58
2024/01/01 00:13:51;;;;;;;33.25;18.48;;;;;;;;;;5045414;28;20140;-59
2024/01/01 00:16:17;;;;;;;28.42;18.13;;;;;;;;;;5046156;28;20127;-59
2024/01/01 00:18:44;;;;;;;28.80;18.67;;;;;;;;;;5045688;28;20136;-59
2024/01/01 00:21:10;;;;;;;28.08;18.20;;;;;;;;;;5045610;28;20049;-59
2024/01/01 00:23:36;;;;;;;27.48;17.02;;;;;;;;;;5045602;28;20092;-59
2024/01/01 00:26:03;;;;;;;19.15;15.27;;;;;;;;;;5045807;28;20116;-58
2024/01/01 00:28:30;;;;;;;21.48;15.93;;;;;;;;;;5045288;28;20052;-58
2024/01/01 00:30:56;;;;;;;25.17;17.45;;;;;;;;;;5043819;28;20508;-58
2024/01/01 00:33:23;;;;;;;24.30;15.93;;;;;;;;;;5045300;28;20056;-57
2024/01/01 00:35:49;;;;;;;29.80;18.10;;;;;;;;;;5045561;28;20140;-60
2024/01/01 00:38:16;;;;;;;24.25;18.10;;;;;;;;;;5045594;28;20924;-59
2024/01/01 00:40:42;;;;;;;25.65;17.40;;;;;;;;;;5045144;28;20372;-59
2024/01/01 00:43:10;;;;;;;29.02;19.05;;;;;;;;;;5044813;28;20484;-57
2024/01/01 00:45:36;;;;;;;32.47;20.20;;;;;;;;;;5045030;28;20061;-59
2024/01/01 00:48:14;;;;;;;24.17;17.25;;;;;;;;;;5045386;28;20050;-58
2024/01/01 00:50:40;;;;;;;24.60;17.25;;;;;;;;;;5045179;28;20053;-58
2024/01/01 00:53:07;;;;;;;33.28;16.35;;;;;;;;;;5045754;28;20914;-59
2024/01/01 00:55:33;;;;;;;27.75;17.98;;;;;;;;;;5044704;28;20081;-59
2024/01/01 00:58:00;;;;;;;25.15;16.10;;;;;;;;;;5044783;28;20060;-59
2024/01/01 01:00:27;;;;;;;20.63;13.20;;;;;;;;;;5045043;28;20129;-59
2024/01/01 01:02:53;;;;;;;22.17;13.57;;;;;;;;;;5045170;28;20053;-59
2024/01/01 01:05:19;;;;;;;31.33;19.98;;;;;;;;;;5045622;28;20053;-57
2024/01/01 01:07:46;;;;;;;27.65;14.35;;;;;;;;;;5043910;28;20050;-59
2024/01/01 01:10:13;;;;;;;15.55;10.85;;;;;;;;;;5045140;28;20805;-58
2024/01/01 01:12:39;;;;;;;20.70;11.32;;;;;;;;;;5044628;28;20053;-59
2024/01/01 01:15:06;;;;;;;15.82;10.68;;;;;;;;;;5045311;28;20483;-58
2024/01/01 01:17:32;;;;;;;19.05;9.18;;;;;;;;;;5044913;28;20516;-59
2024/01/01 01:19:59;;;;;;;10.88;7.00;;;;;;;;;;5044702;28;20056;-59
2024/01/01 01:22:25;;;;;;;12.98;6.63;;;;;;;;;;5044947;28;20498;-59
2024/01/01 01:24:52;;;;;;;9.95;6.10;;;;;;;;;;5044999;28;20053;-59
2024/01/01 01:27:18;;;;;;;11.90;6.13;;;;;;;;;;5044646;28;20049;-59
2024/01/01 01:29:44;;;;;;;12.80;6.18;;;;;;;;;;5044956;28;20057;-59
2024/01/01 01:32:10;;;;;;;12.52;5.78;;;;;;;;;;5045272;28;21142;-57
2024/01/01 01:34:37;;;;;;;9.88;5.45;;;;;;;;;;5044662;28;20115;-59
2024/01/01 01:37:03;;;;;;;10.35;5.07;;;;;;;;;;5045268;28;20053;-59
2024/01/01 01:39:30;;;;;;;9.68;3.95;;;;;;;;;;5044777;28;20056;-58
2024/01/01 01:41:56;;;;;;;9.75;3.90;;;;;;;;;;5045734;28;20053;-59
2024/01/01 01:44:22;;;;;;;8.52;4.45;;;;;;;;;;5047695;28;20140;-58
2024/01/01 01:46:49;;;;;;;9.93;4.15;;;;;;;;;;5048112;28;20054;-59
2024/01/01 01:49:17;;;;;;;12.07;4.00;;;;;;;;;;5048484;28;20139;-59
2024/01/01 01:51:47;;;;;;;5.50;3.58;;;;;;;;;;5047913;28;20148;-58
2024/01/01 01:54:14;;;;;;;8.77;3.38;;;;;;;;;;5047899;28;20491;-59
2024/01/01 01:56:41;;;;;;;8.70;3.30;;;;;;;;;;5047351;28;20484;-58
2024/01/01 01:59:07;;;;;;;7.68;3.00;;;;;;;;;;5048316;28;20140;-59
2024/01/01 02:01:34;;;;;;;6.50;2.80;;;;;;;;;;5047521;28;20089;-59
2024/01/01 02:04:00;;;;;;;8.27;3.20;;;;;;;;;;5048024;28;20073;-58
2024/01/01 02:06:27;;;;;;;7.30;3.33;;;;;;;;;;5047575;28;20053;-58
2024/01/01 02:08:56;;;;;;;4.45;2.40;;;;;;;;;;5047649;28;20109;-58
2024/01/01 02:11:22;;;;;;;9.48;3.05;;;;;;;;;;5047974;28;20584;-60
2024/01/01 02:13:49;;;;;;;8.30;2.95;;;;;;;;;;5047605;28;20068;-59
2024/01/01 02:16:15;;;;;;;9.60;2.42;;;;;;;;;;5047821;28;20061;-59
2024/01/01 02:18:42;;;;;;;5.22;2.10;;;;;;;;;;5047540;28;20503;-59
2024/01/01 02:21:09;;;;;;;8.40;2.45;;;;;;;;;;5047556;28;20077;-59
2024/01/01 02:23:35;;;;;;;6.78;2.10;;;;;;;;;;5046991;28;20559;-59
2024/01/01 02:26:02;;;;;;;10.25;2.83;;;;;;;;;;5047796;28;20052;-60
2024/01/01 02:28:28;;;;;;;8.65;2.42;;;;;;;;;;5047630;28;20064;-58
2024/01/01 02:30:54;;;;;;;5.57;1.75;;;;;;;;;;5047515;28;20085;-59
2024/01/01 02:33:21;;;;;;;7.82;1.92;;;;;;;;;;5047823;28;20099;-59
2024/01/01 02:35:47;;;;;;;10.30;3.00;;;;;;;;;;5046878;28;20053;-59
2024/01/01 02:38:14;;;;;;;11.40;2.80;;;;;;;;;;5046772;28;20057;-59
2024/01/01 02:40:40;;;;;;;9.88;2.42;;;;;;;;;;5047213;28;20503;-57
2024/01/01 02:43:07;;;;;;;8.88;3.20;;;;;;;;;;5047267;28;20057;-59
2024/01/01 02:45:33;;;;;;;9.02;3.08;;;;;;;;;;5046588;28;20672;-59
2024/01/01 02:48:00;;;;;;;9.88;3.00;;;;;;;;;;5047177;28;20612;-59
2024/01/01 02:50:27;;;;;;;8.60;3.50;;;;;;;;;;5046963;28;20504;-59
2024/01/01 02:52:53;;;;;;;8.10;3.33;;;;;;;;;;5045957;28;20127;-58
2024/01/01 02:55:20;;;;;;;11.10;3.05;;;;;;;;;;5047012;28;20057;-58
2024/01/01 02:57:46;;;;;;;7.13;3.03;;;;;;;;;;5045576;28;20631;-58
2024/01/01 03:00:14;;;;;;;11.57;2.92;;;;;;;;;;5046574;28;20109;-59
2024/01/01 03:02:41;;;;;;;8.82;3.05;;;;;;;;;;5046959;28;20056;-57
2024/01/01 03:05:08;;;;;;;10.18;3.67;;;;;;;;;;5047011;28;20057;-59
2024/01/01 03:07:35;;;;;;;16.02;3.55;;;;;;;;;;5046598;28;20049;-59
2024/01/01 03:10:02;;;;;;;17.27;3.03;;;;;;;;;;5046824;28;20057;-59
2024/01/01 03:12:28;;;;;;;13.05;3.33;;;;;;;;;;5046670;28;20080;-59
2024/01/01 03:14:54;;;;;;;13.43;3.88;;;;;;;;;;5046470;28;20450;-58
2024/01/01 03:17:21;;;;;;;13.55;3.22;;;;;;;;;;5046862;28;20053;-59
2024/01/01 03:19:47;;;;;;;12.75;3.10;;;;;;;;;;5046432;28;20081;-60
2024/01/01 03:22:14;;;;;;;11.73;2.78;;;;;;;;;;5046130;28;20060;-60
2024/01/01 03:24:40;;;;;;;16.90;3.67;;;;;;;;;;5046517;28;20061;-60
2024/01/01 03:27:07;;;;;;;9.43;3.17;;;;;;;;;;5046362;28;20060;-60
2024/01/01 03:29:33;;;;;;;12.63;3.90;;;;;;;;;;5046436;28;20212;-60
2024/01/01 03:31:59;;;;;;;12.75;3.92;;;;;;;;;;5046486;28;20049;-59
2024/01/01 03:34:26;;;;;;;11.13;3.65;;;;;;;;;;5046306;28;20496;-59
2024/01/01 03:36:52;;;;;;;13.25;3.10;;;;;;;;;;5045935;28;20081;-57
2024/01/01 03:39:19;;;;;;;13.27;2.97;;;;;;;;;;5046634;28;20774;-60
2024/01/01 03:41:45;;;;;;;11.95;3.58;;;;;;;;;;5046151;28;20611;-60
2024/01/01 03:44:12;;;;;;;12.23;3.35;;;;;;;;;;5045930;28;20054;-60
2024/01/01 03:46:38;;;;;;;12.65;3.75;;;;;;;;;;5046478;28;20051;-59
2024/01/01 03:49:05;;;;;;;11.13;3.40;;;;;;;;;;5045985;28;20060;-60
2024/01/01 03:51:31;;;;;;;18.67;3.72;;;;;;;;;;5045605;28;20049;-59
2024/01/01 03:53:58;;;;;;;8.45;2.92;;;;;;;;;;5045964;28;20523;-60
2024/01/01 03:56:25;;;;;;;13.30;3.53;;;;;;;;;;5046220;28;20614;-59
2024/01/01 03:58:51;;;;;;;9.88;3.40;;;;;;;;;;5046199;28;20065;-59
2024/01/01 04:01:19;;;;;;;13.65;3.42;;;;;;;;;;5046127;28;20057;-58
2024/01/01 04:03:46;;;;;;;14.85;3.30;;;;;;;;;;5045833;28;20057;-59
2024/01/01 04:06:12;;;;;;;16.98;4.30;;;;;;;;;;5045508;28;20313;-58
2024/01/01 04:08:39;;;;;;;11.93;3.40;;;;;;;;;;5045907;28;20077;-58
2024/01/01 04:11:05;;;;;;;11.57;3.40;;;;;;;;;;5045987;28;20101;-60
2024/01/01 04:13:32;;;;;;;9.85;3.20;;;;;;;;;;5045141;28;20077;-60
2024/01/01 04:15:58;;;;;;;17.83;3.40;;;;;;;;;;5045765;28;20053;-59
2024/01/01 04:18:24;;;;;;;12.57;3.53;;;;;;;;;;5045986;28;20135;-60
2024/01/01 04:20:53;;;;;;;12.88;3.67;;;;;;;;;;5045378;28;20081;-60
2024/01/01 04:23:19;;;;;;;15.25;3.83;;;;;;;;;;5045815;28;20460;-59
2024/01/01 04:25:45;;;;;;;15.48;2.72;;;;;;;;;;5046025;28;20057;-59
2024/01/01 04:28:12;;;;;;;14.98;3.50;;;;;;;;;;5045530;28;20061;-58
2024/01/01 04:30:38;;;;;;;14.23;3.13;;;;;;;;;;5045762;28;20137;-58
2024/01/01 04:33:04;;;;;;;14.60;3.33;;;;;;;;;;5045515;28;20077;-58
2024/01/01 04:35:32;;;;;;;13.50;3.70;;;;;;;;;;5044885;28;20100;-58
2024/01/01 04:37:58;;;;;;;13.55;3.42;;;;;;;;;;5045082;28;20049;-60
2024/01/01 04:40:25;;;;;;;12.00;3.40;;;;;;;;;;5044083;28;20480;-60
2024/01/01 04:42:53;;;;;;;23.33;4.63;;;;;;;;;;5045509;28;20053;-59
2024/01/01 04:45:20;;;;;;;14.98;3.80;;;;;;;;;;5045604;28;20604;-59
2024/01/01 04:47:46;;;;;;;20.25;3.58;;;;;;;;;;5045284;28;20176;-59
2024/01/01 04:50:12;;;;;;;9.38;3.83;;;;;;;;;;5045516;28;20053;-60
2024/01/01 04:52:42;;;;;;;12.52;2.42;;;;;;;;;;5045132;28;20507;-59
2024/01/01 04:55:08;;;;;;;13.65;4.15;;;;;;;;;;5045197;28;20057;-58
2024/01/01 04:57:34;;;;;;;8.07;2.78;;;;;;;;;;5045174;28;20058;-58
2024/01/01 05:00:02;;;;;;;20.00;3.85;;;;;;;;;;5045276;28;20496;-60
2024/01/01 05:02:29;;;;;;;14.82;2.83;;;;;;;;;;5044659;28;20058;-59
2024/01/01 05:04:55;;;;;;;8.55;3.35;;;;;;;;;;5045232;28;20053;-59
2024/01/01 05:07:21;;;;;;;17.55;3.30;;;;;;;;;;5045517;28;20504;-59
2024/01/01 05:09:48;;;;;;;11.15;3.08;;;;;;;;;;5044895;28;20528;-59
2024/01/01 05:12:14;;;;;;;11.60;3.28;;;;;;;;;;5045482;28;20049;-59
2024/01/01 05:14:41;;;;;;;12.10;3.50;;;;;;;;;;5045058;28;20546;-58
2024/01/01 05:17:07;;;;;;;11.23;3.03;;;;;;;;;;5046585;28;20532;-59
2024/01/01 05:19:33;;;;;;;11.10;2.90;;;;;;;;;;5047859;28;20053;-59
2024/01/01 05:22:03;;;;;;;14.00;3.85;;;;;;;;;;5048894;28;20108;-59
2024/01/01 05:24:30;;;;;;;12.32;3.40;;;;;;;;;;5046556;28;20601;-57
2024/01/01 05:26:56;;;;;;;11.15;3.28;;;;;;;;;;5046823;28;20076;-58
2024/01/01 05:29:23;;;;;;;9.23;3.78;;;;;;;;;;5048405;28;20520;-58
2024/01/01 05:31:49;;;;;;;16.38;4.60;;;;;;;;;;5046732;28;20054;-59
2024/01/01 05:34:16;;;;;;;14.32;3.65;;;;;;;;;;5048796;28;20090;-59
2024/01/01 05:36:43;;;;;;;17.15;4.82;;;;;;;;;;5047997;28;20103;-59
2024/01/01 05:39:09;;;;;;;13.10;3.15;;;;;;;;;;5048119;28;20500;-59
2024/01/01 05:41:35;;;;;;;19.90;3.70;;;;;;;;;;5048046;28;20554;-59
2024/01/01 05:44:02;;;;;;;15.73;3.63;;;;;;;;;;5048265;28;20516;-59
2024/01/01 05:46:31;;;;;;;19.88;4.22;;;;;;;;;;5047296;28;20061;-58
2024/01/01 05:48:58;;;;;;;13.88;3.47;;;;;;;;;;5048120;28;20058;-59
2024/01/01 05:51:24;;;;;;;19.67;3.53;;;;;;;;;;5047243;28;20100;-59
2024/01/01 05:53:50;;;;;;;13.55;4.75;;;;;;;;;;5046920;28;20057;-60
2024/01/01 05:56:17;;;;;;;9.20;3.13;;;;;;;;;;5048364;28;20061;-59
2024/01/01 05:58:43;;;;;;;15.23;3.03;;;;;;;;;;5047719;28;20424;-59
2024/01/01 06:01:10;;;;;;;12.65;3.30;;;;;;;;;;5047268;28;20070;-58
2024/01/01 06:03:36;;;;;;;10.00;3.05;;;;;;;;;;5047531;28;20058;-59
2024/01/01 06:06:02;;;;;;;14.63;4.22;;;;;;;;;;5047648;28;20061;-59
2024/01/01 06:08:29;;;;;;;15.10;3.80;;;;;;;;;;5047464;28;20050;-59
2024/01/01 06:10:55;;;;;;;17.70;4.15;;;;;;;;;;5046451;28;20054;-59
2024/01/01 06:13:23;;;;;;;17.70;3.92;;;;;;;;;;5047975;28;20096;-60
2024/01/01 06:15:51;;;;;;;15.75;4.53;;;;;;;;;;5047009;28;20057;-57
2024/01/01 06:18:17;;;;;;;14.88;3.58;;;;;;;;;;5047958;28;20046;-59
2024/01/01 06:20:45;;;;;;;13.60;4.30;;;;;;;;;;5047100;28;20057;-60
2024/01/01 06:23:11;;;;;;;14.68;3.22;;;;;;;;;;5047721;28;20602;-59
2024/01/01 06:25:37;;;;;;;13.32;4.38;;;;;;;;;;5047519;28;20053;-56
2024/01/01 06:28:04;;;;;;;12.18;3.13;;;;;;;;;;5047436;28;20111;-58
2024/01/01 06:30:32;;;;;;;15.43;5.10;;;;;;;;;;5046742;28;20053;-60
2024/01/01 06:33:00;;;;;;;16.75;3.50;;;;;;;;;;5047234;28;20057;-60
2024/01/01 06:35:30;;;;;;;12.50;3.42;;;;;;;;;;5047270;28;20053;-57
2024/01/01 06:37:56;;;;;;;12.82;3.22;;;;;;;;;;5047120;28;20448;-58
2024/01/01 06:40:23;;;;;;;14.32;2.90;;;;;;;;;;5047349;28;20056;-58
2024/01/01 06:42:49;;;;;;;5.43;1.90;;;;;;;;;;5047043;28;20550;-60
2024/01/01 06:45:16;;;;;;;9.75;2.80;;;;;;;;;;5046319;28;20500;-59
2024/01/01 06:47:42;;;;;;;9.07;3.05;;;;;;;;;;5046697;28;20061;-60
2024/01/01 06:50:09;;;;;;;7.13;2.85;;;;;;;;;;5045835;28;20045;-59
2024/01/01 06:52:35;;;;;;;10.80;3.60;;;;;;;;;;5047018;28;20530;-60
2024/01/01 06:55:02;;;;;;;12.73;3.60;;;;;;;;;;5047000;28;20057;-60
2024/01/01 06:57:28;;;;;;;11.80;3.10;;;;;;;;;;5046673;28;20871;-59
2024/01/01 06:59:55;;;;;;;14.55;2.90;;;;;;;;;;5046778;28;20058;-60
2024/01/01 07:02:22;;;;;;;14.48;2.95;;;;;;;;;;5047194;28;20104;-60
2024/01/01 07:04:48;;;;;;;14.98;3.08;;;;;;;;;;5046570;28;20085;-60
2024/01/01 07:07:15;;;;;;;8.50;2.90;;;;;;;;;;5046629;28;20077;-59
2024/01/01 07:09:41;;;;;;;14.65;3.10;;;;;;;;;;5046534;28;20139;-60
2024/01/01 07:12:20;;;;;;;17.85;3.92;;;;;;;;;;5046817;28;20531;-60
2024/01/01 07:14:47;;;;;;;14.68;3.33;;;;;;;;;;5045958;28;20104;-59
2024/01/01 07:17:13;;;;;;;15.93;4.20;;;;;;;;;;5046541;28;20057;-58
2024/01/01 07:19:40;;;;;;;13.57;3.13;;;;;;;;;;5046252;28;20112;-60
2024/01/01 07:22:06;;;;;;;8.85;3.05;;;;;;;;;;5047088;28;20115;-59
2024/01/01 07:24:33;;;;;;;10.73;3.97;;;;;;;;;;5046109;28;20060;-60
2024/01/01 07:26:59;;;;;;;13.32;3.10;;;;;;;;;;5046489;28;20140;-58
2024/01/01 07:29:27;;;;;;;18.65;3.85;;;;;;;;;;5045826;28;20054;-57
2024/01/01 07:31:54;;;;;;;13.57;3.50;;;;;;;;;;5063147;28;20092;-59
2024/01/01 07:34:20;;;;;;;13.55;3.35;;;;;;;;;;5066891;28;20048;-59
2024/01/01 07:36:48;;;;;;;15.52;3.55;;;;;;;;;;5066358;28;20061;-59
2024/01/01 07:39:19;;;;;;;16.65;3.38;;;;;;;;;;5065971;28;20088;-59
2024/01/01 07:41:46;;;;;;;13.70;3.83;;;;;;;;;;5066394;28;20597;-59
2024/01/01 07:44:12;;;;;;;8.60;2.78;;;;;;;;;;5065972;28;20554;-60
2024/01/01 07:46:39;;;;;;;12.70;3.83;;;;;;;;;;5066199;28;20108;-59
2024/01/01 07:49:06;;;;;;;10.85;2.72;;;;;;;;;;5066595;28;20055;-59
2024/01/01 07:51:33;;;;;;;13.68;2.95;;;;;;;;;;5066085;28;20106;-59
2024/01/01 07:54:00;;;;;;;9.90;2.50;;;;;;;;;;5065816;28;20130;-59
2024/01/01 07:56:26;;;;;;;15.27;2.95;;;;;;;;;;5065880;28;20164;-58
2024/01/01 07:58:55;;;;;;;14.98;3.92;;;;;;;;;;5065808;28;20057;-59
2024/01/01 08:01:21;;;;;;;8.15;3.15;;;;;;;;;;5066427;28;20055;-59
2024/01/01 08:03:48;;;;;;;15.35;4.10;;;;;;;;;;5066033;28;20048;-59
2024/01/01 08:06:14;;;;;;;18.35;3.97;;;;;;;;;;5066505;28;20088;-60
2024/01/01 08:08:40;;;;;;;14.25;3.58;;;;;;;;;;5064530;28;20528;-59
2024/01/01 08:11:07;;;;;;;16.42;4.05;;;;;;;;;;5065778;28;20602;-59
2024/01/01 08:13:33;;;;;;;11.32;3.85;;;;;;;;;;5065290;28;20106;-59
2024/01/01 08:16:00;;;;;;;13.02;2.80;;;;;;;;;;5066117;28;20053;-59
2024/01/01 08:18:26;;;;;;;13.55;3.17;;;;;;;;;;5065496;28;20526;-59
2024/01/01 08:20:53;;;;;;;6.93;2.95;;;;;;;;;;5065958;28;20057;-58
2024/01/01 08:23:20;;;;;;;8.95;2.65;;;;;;;;;;5066061;28;20052;-59
2024/01/01 08:25:46;;;;;;;12.98;2.58;;;;;;;;;;5065316;28;20057;-58
2024/01/01 08:28:13;;;;;;;13.27;2.65;;;;;;;;;;5065959;28;20474;-59
2024/01/01 08:30:39;;;;;;;12.13;3.03;;;;;;;;;;5065375;28;20576;-59
2024/01/01 08:33:06;;;;;;;14.25;3.38;;;;;;;;;;5065664;28;20048;-59
2024/01/01 08:35:32;;;;;;;15.18;2.70;;;;;;;;;;5064218;28;20053;-59
2024/01/01 08:37:58;;;;;;;13.32;3.40;;;;;;;;;;5065559;28;20583;-59
2024/01/01 08:40:25;;;;;;;10.77;2.78;;;;;;;;;;5065211;28;20064;-58
2024/01/01 08:42:51;;;;;;;13.85;3.13;;;;;;;;;;5065368;28;20051;-58
2024/01/01 08:45:21;;;;;;;5.85;2.47;;;;;;;;;;5065329;28;20052;-59
2024/01/01 08:47:48;;;;;;;14.30;4.10;;;;;;;;;;5065644;28;20102;-59
2024/01/01 08:50:14;;;;;;;8.70;2.28;;;;;;;;;;5065758;28;20049;-59
2024/01/01 08:52:42;;;;;;;11.80;2.45;;;;;;;;;;5067746;28;20139;-59
2024/01/01 08:55:09;;;;;;;11.85;2.95;;;;;;;;;;5068572;28;20537;-60
2024/01/01 08:57:35;;;;;;;11.60;3.15;;;;;;;;;;5068698;28;20057;-58
2024/01/01 09:00:05;;;;;;;13.90;2.40;;;;;;;;;;5069388;28;20563;-59
2024/01/01 09:02:31;;;;;;;9.35;1.95;;;;;;;;;;5067502;28;20136;-57
2024/01/01 09:04:58;;;;;;;8.85;2.03;;;;;;;;;;5068989;28;20048;-59
2024/01/01 09:07:24;;;;;;;4.82;1.83;;;;;;;;;;5068261;28;20149;-58
2024/01/01 09:09:50;;;;;;;6.68;2.50;;;;;;;;;;5068833;28;20133;-60
2024/01/01 09:12:17;;;;;;;5.18;2.33;;;;;;;;;;5069139;28;20058;-59
2024/01/01 09:14:43;;;;;;;7.93;2.08;;;;;;;;;;5068464;28;20060;-60
2024/01/01 09:17:10;;;;;;;6.07;2.03;;;;;;;;;;5068645;28;20140;-60
2024/01/01 09:19:37;;;;;;;7.97;2.63;;;;;;;;;;5068760;28;20063;-59
2024/01/01 09:22:04;;;;;;;6.97;1.92;;;;;;;;;;5068496;28;20068;-60
2024/01/01 09:24:30;;;;;;;16.35;2.80;;;;;;;;;;5067936;28;20062;-59
2024/01/01 09:26:58;;;;;;;9.07;2.10;;;;;;;;;;5068724;28;20396;-60
2024/01/01 09:29:25;;;;;;;4.32;1.85;;;;;;;;;;5068849;28;20056;-58
2024/01/01 09:31:52;;;;;;;8.55;1.75;;;;;;;;;;5068954;28;20052;-58
2024/01/01 09:34:18;;;;;;;5.35;1.73;;;;;;;;;;5068326;28;20075;-59
2024/01/01 09:36:45;;;;;;;7.10;1.63;;;;;;;;;;5066901;28;20048;-59
2024/01/01 09:39:25;;;;;;;10.52;2.20;;;;;;;;;;5068333;28;20060;-59
2024/01/01 09:41:52;;;;;;;6.88;1.95;;;;;;;;;;5068688;28;20124;-59
2024/01/01 09:44:19;;;;;;;9.65;2.05;;;;;;;;;;5067749;28;20484;-57
2024/01/01 09:46:46;;;;;;;7.50;1.50;;;;;;;;;;5067213;28;20053;-59
2024/01/01 09:49:12;;;;;;;6.97;1.67;;;;;;;;;;5067139;28;20053;-59
2024/01/01 09:51:39;;;;;;;10.63;2.08;;;;;;;;;;5066834;28;20049;-59
2024/01/01 09:54:07;;;;;;;4.25;1.75;;;;;;;;;;5066993;28;20056;-59
2024/01/01 09:56:33;;;;;;;5.47;1.27;;;;;;;;;;5066767;28;20549;-57
2024/01/01 09:59:01;;;;;;;6.60;1.35;;;;;;;;;;5067258;28;20060;-59
2024/01/01 10:01:30;;;;;;;4.30;1.50;;;;;;;;;;5066646;28;20099;-58
2024/01/01 10:04:06;;;;;;;6.70;1.50;;;;;;;;;;5066603;28;20053;-59
2024/01/01 10:06:36;;;;;;;5.82;1.88;;;;;;;;;;5066729;28;20067;-59
2024/01/01 10:09:09;;;;;;;5.97;1.83;;;;;;;;;;5066193;28;20049;-59
2024/01/01 10:11:42;;;;;;;7.63;1.33;;;;;;;;;;5066758;28;20665;-60
2024/01/01 10:14:08;;;;;;;5.78;1.70;;;;;;;;;;5066899;28;20143;-59
2024/01/01 10:16:35;;;;;;;7.40;1.80;;;;;;;;;;5067355;28;20049;-60
2024/01/01 10:19:02;;;;;;;6.60;1.17;;;;;;;;;;5066897;28;20053;-59
2024/01/01 10:21:29;;;;;;;5.45;1.60;;;;;;;;;;5066133;28;20045;-59
2024/01/01 10:23:57;;;;;;;8.20;1.98;;;;;;;;;;5066008;28;20057;-59
2024/01/01 10:26:28;;;;;;;10.75;2.15;;;;;;;;;;5066262;28;20057;-59
2024/01/01 10:28:55;;;;;;;7.07;1.70;;;;;;;;;;5066328;28;20127;-59
2024/01/01 10:31:22;;;;;;;5.55;2.05;;;;;;;;;;5066586;28;20060;-60
2024/01/01 10:33:49;;;;;;;6.63;1.52;;;;;;;;;;5066354;28;20056;-60
2024/01/01 10:36:17;;;;;;;12.85;1.75;;;;;;;;;;5065029;28;20049;-59
2024/01/01 10:38:45;;;;;;;5.60;1.73;;;;;;;;;;5066350;28;20139;-58
2024/01/01 10:41:12;;;;;;;5.68;1.30;;;;;;;;;;5066023;28;20061;-60
2024/01/01 10:43:40;;;;;;;7.93;2.15;;;;;;;;;;5065892;28;20057;-59
2024/01/01 10:46:07;;;;;;;4.13;1.30;;;;;;;;;;5028998;28;1074223;-59
2024/01/01 10:48:35;;;;;;;3.65;1.35;;;;;;;;;;5066916;28;20368;-59
2024/01/01 10:51:07;;;;;;;5.38;1.63;;;;;;;;;;5066878;28;20057;-59
2024/01/01 10:54:06;;;;;;;13.13;1.75;;;;;;;;;;5066778;28;20053;-59
2024/01/01 10:56:39;;;;;;;7.60;1.60;;;;;;;;;;5004368;28;20911;-58
2024/01/01 10:59:06;;;;;;;4.00;1.38;;;;;;;;;;5005492;28;20054;-58
2024/01/01 11:01:35;;;;;;;10.05;1.88;;;;;;;;;;5004465;28;20632;-59
2024/01/01 11:04:02;;;;;;;10.93;1.85;;;;;;;;;;5004345;28;20063;-59
2024/01/01 11:06:31;;;;;;;6.05;1.63;;;;;;;;;;5003661;28;20057;-59
2024/01/01 11:09:17;;;;;;;7.05;1.67;;;;;;;;;;5004425;28;20054;-59
2024/01/01 11:11:50;;;;;;;7.88;1.58;;;;;;;;;;5003730;28;20057;-59
2024/01/01 11:14:23;;;;;;;5.63;1.58;;;;;;;;;;5003464;28;20054;-60
2024/01/01 11:16:51;;;;;;;4.22;1.25;;;;;;;;;;5003889;28;20055;-59
2024/01/01 11:19:39;;;;;;;5.72;1.77;;;;;;;;;;5003229;28;20556;-60
2024/01/01 11:22:06;;;;;;;;;;;;;;;;;;5004698;28;20493;-58
2024/01/01 11:24:42;;;;;;;11.68;2.00;;;;;;;;;;5003029;28;44006;-60
2024/01/01 11:27:33;;;;;;;7.22;1.70;;;;;;;;;;5004269;28;20179;-59
2024/01/01 11:30:06;;;;;;;8.70;1.58;;;;;;;;;;5004304;28;20101;-57
2024/01/01 11:32:34;;;;;;;7.90;1.98;;;;;;;;;;5042327;28;20067;-51
2024/01/01 11:35:08;;;;;;;13.90;2.05;;;;;;;;;;5064930;28;20499;-61
2024/01/01 11:37:36;;;;;;;5.30;2.13;;;;;;;;;;5066107;28;20128;-60
2024/01/01 11:40:04;;;;;;;11.50;1.95;;;;;;;;;;5066619;28;20275;-60
2024/01/01 11:42:30;;;;;;;6.43;1.83;;;;;;;;;;5066139;28;20049;-60
2024/01/01 11:45:16;;;;;;;10.93;2.00;;;;;;;;;;5066272;28;20051;-59
2024/01/01 11:47:43;;;;;;;6.38;1.45;;;;;;;;;;5066036;28;20053;-60
2024/01/01 11:50:11;;;;;;;12.27;1.85;;;;;;;;;;5066127;28;20048;-60
2024/01/01 11:52:38;;;;;;;8.68;2.13;;;;;;;;;;5063610;28;20612;-60
2024/01/01 11:55:05;;;;;;;11.23;2.35;;;;;;;;;;5055325;28;20128;-60
2024/01/01 11:57:31;;;;;;;10.52;2.00;;;;;;;;;;5065159;28;20069;-60
2024/01/01 11:59:58;;;;;;;9.85;1.90;;;;;;;;;;5066229;28;20503;-60
2024/01/01 12:02:24;;;;;;;4.82;1.30;;;;;;;;;;5065517;28;20056;-60
2024/01/01 12:04:52;;;;;;;11.95;2.00;;;;;;;;;;5061453;28;20393;-60
2024/01/01 12:07:34;;;;;;;9.55;1.77;;;;;;;;;;5053030;28;20053;-61
2024/01/01 12:10:11;;;;;;;4.80;1.67;;;;;;;;;;5065191;28;20983;-60
2024/01/01 12:12:38;;;;;;;11.23;1.95;;;;;;;;;;5065539;28;20056;-59
2024/01/01 12:15:11;;;;;;;11.77;2.60;;;;;;;;;;5065676;28;20488;-59
2024/01/01 12:17:41;;;;;;;7.20;1.80;;;;;;;;;;5061558;28;20147;-60
2024/01/01 12:20:12;;;;;;;8.00;2.13;;;;;;;;;;5049313;28;20057;-59
2024/01/01 12:22:38;;;;;;;9.85;1.80;;;;;;;;;;5048531;28;20056;-59
2024/01/01 12:25:05;;;;;;;10.05;1.90;;;;;;;;;;5065398;28;20520;-58
2024/01/01 12:27:32;;;;;;;11.50;1.42;;;;;;;;;;5065684;28;20049;-59
2024/01/01 12:29:59;;;;;;;7.57;1.52;;;;;;;;;;5066023;28;20068;-59
2024/01/01 12:32:26;;;;;;;5.85;2.08;;;;;;;;;;5065288;28;20045;-60
2024/01/01 12:34:53;;;;;;;7.65;1.77;;;;;;;;;;5064399;28;20053;-59
2024/01/01 12:37:20;;;;;;;14.43;2.83;;;;;;;;;;5065699;28;20139;-59
2024/01/01 12:39:46;;;;;;;7.07;1.90;;;;;;;;;;5065483;28;20128;-61
2024/01/01 12:42:12;;;;;;;12.00;2.22;;;;;;;;;;5065574;28;20056;-61
2024/01/01 12:44:39;;;;;;;9.88;2.15;;;;;;;;;;5066118;28;20143;-60
2024/01/01 12:47:05;;;;;;;16.20;2.38;;;;;;;;;;5068749;28;20052;-60
2024/01/01 12:49:34;;;;;;;7.65;2.42;;;;;;;;;;5049979;28;20064;-60
2024/01/01 12:52:00;;;;;;;14.23;2.33;;;;;;;;;;5045610;28;20049;-59
2024/01/01 12:54:27;;;;;;;12.05;2.25;;;;;;;;;;5045848;28;20054;-60
2024/01/01 12:56:53;;;;;;;8.38;2.15;;;;;;;;;;5059759;28;20160;-59
2024/01/01 12:59:20;;;;;;;11.25;2.63;;;;;;;;;;5063970;28;20085;-59
2024/01/01 13:01:47;;;;;;;13.18;2.30;;;;;;;;;;5063894;28;20088;-58
2024/01/01 13:04:13;;;;;;;13.75;2.55;;;;;;;;;;5056574;28;20762;-58
2024/01/01 13:06:40;;;;;;;11.77;2.05;;;;;;;;;;5064898;28;20085;-60
2024/01/01 13:09:08;;;;;;;13.57;2.88;;;;;;;;;;5065410;28;20056;-60
2024/01/01 13:11:34;;;;;;;10.18;2.20;;;;;;;;;;5065245;28;20529;-60
2024/01/01 13:14:01;;;;;;;9.88;1.90;;;;;;;;;;5065398;28;20494;-60
2024/01/01 13:16:27;;;;;;;13.55;2.90;;;;;;;;;;5064273;28;20049;-60
2024/01/01 13:18:53;;;;;;;11.88;2.30;;;;;;;;;;5064890;28;20065;-59
2024/01/01 13:21:20;;;;;;;8.98;2.10;;;;;;;;;;5065439;28;20450;-60
2024/01/01 13:23:46;;;;;;;11.15;3.03;;;;;;;;;;5064725;28;20589;-60
2024/01/01 13:26:13;;;;;;;11.52;2.20;;;;;;;;;;5065302;28;20543;-60
2024/01/01 13:28:39;;;;;;;12.20;2.15;;;;;;;;;;5064620;28;20056;-60
2024/01/01 13:31:05;;;;;;;12.85;3.28;;;;;;;;;;5064353;28;20045;-59
2024/01/01 13:33:32;;;;;;;12.63;3.55;;;;;;;;;;5065169;28;20049;-59
2024/01/01 13:35:59;;;;;;;13.23;2.67;;;;;;;;;;5064634;28;20118;-59
2024/01/01 13:38:25;;;;;;;11.63;2.40;;;;;;;;;;5067104;28;20570;-60
2024/01/01 13:40:53;;;;;;;12.57;2.95;;;;;;;;;;5068108;28;20065;-59
2024/01/01 13:43:21;;;;;;;15.15;2.63;;;;;;;;;;5068338;28;20132;-60
2024/01/01 13:45:47;;;;;;;10.75;2.08;;;;;;;;;;5067353;28;20897;-59
2024/01/01 13:48:14;;;;;;;14.27;2.85;;;;;;;;;;5068125;28;20069;-59
2024/01/01 13:50:42;;;;;;;10.40;2.45;;;;;;;;;;5067887;28;20084;-60
2024/01/01 13:53:09;;;;;;;19.33;2.63;;;;;;;;;;5061401;28;20059;-58
2024/01/01 13:55:36;;;;;;;14.18;2.30;;;;;;;;;;5066507;28;20053;-59
2024/01/01 13:58:04;;;;;;;13.48;2.78;;;;;;;;;;5067236;28;20669;-59
2024/01/01 14:00:30;;;;;;;13.80;2.53;;;;;;;;;;5067236;28;20067;-58
2024/01/01 14:02:58;;;;;;;13.25;2.97;;;;;;;;;;5068081;28;20053;-60
2024/01/01 14:05:25;;;;;;;18.35;3.58;;;;;;;;;;5066856;28;20542;-59
2024/01/01 14:07:51;;;;;;;11.23;3.30;;;;;;;;;;5041290;28;20064;-60
2024/01/01 14:10:19;;;;;;;17.25;3.63;;;;;;;;;;5058060;28;20056;-60
2024/01/01 14:12:46;;;;;;;12.50;2.78;;;;;;;;;;5066910;28;20060;-59
2024/01/01 14:15:12;;;;;;;16.42;3.13;;;;;;;;;;5066411;28;20425;-61
2024/01/01 14:17:39;;;;;;;15.63;2.70;;;;;;;;;;5065788;28;20045;-59
2024/01/01 14:20:06;;;;;;;9.98;2.10;;;;;;;;;;5067569;28;20060;-60
2024/01/01 14:22:32;;;;;;;11.65;3.15;;;;;;;;;;5066701;28;20053;-58
2024/01/01 14:24:59;;;;;;;19.58;3.85;;;;;;;;;;5066493;28;20080;-60
2024/01/01 14:27:25;;;;;;;13.95;2.53;;;;;;;;;;5067000;28;20488;-57
2024/01/01 14:29:52;;;;;;;10.77;2.67;;;;;;;;;;5062016;28;20052;-57
2024/01/01 14:32:18;;;;;;;17.42;3.13;;;;;;;;;;5064474;28;20068;-59
2024/01/01 14:34:45;;;;;;;14.38;3.35;;;;;;;;;;5062084;28;20422;-58